Thursday, March 30, 2017, 2:23 PM EDT

KEZF, Fredericksburg, Shannon Airport

Location: Fredericksburg, VA, United States Lat: 38.267
Local Time: 2:23 PM EDT (18:23 GMT) Lon: -77.45
Time Zone: US/Eastern Elev: 85 ft

Show me the last for .
Show Decoded

2017-03-30 13:55 METAR KEZF 301755Z AUTO 09006KT 10SM OVC050 13/03 A3016 RMK AO2 T01270030 10127
                 20087 =
2017-03-30 13:35 METAR KEZF 301735Z AUTO 11006KT 10SM OVC050 12/03 A3017 RMK AO2 T01230030 =
2017-03-30 13:15 METAR KEZF 301715Z AUTO 08007KT 10SM OVC050 12/03 A3018 RMK AO2 T01210028 =
2017-03-30 12:55 METAR KEZF 301655Z AUTO 10005KT 10SM OVC050 11/02 A3020 RMK AO2 T01120024 =
2017-03-30 12:35 METAR KEZF 301635Z AUTO 07005KT 10SM OVC050 11/03 A3020 RMK AO2 T01140025 =
2017-03-30 12:15 METAR KEZF 301615Z AUTO 09007KT 10SM OVC050 11/02 A3021 RMK AO2 T01100024 =
2017-03-30 11:55 METAR KEZF 301555Z AUTO 09006KT 10SM OVC050 11/02 A3022 RMK AO2 T01060017 =
2017-03-30 11:35 METAR KEZF 301535Z AUTO 10006KT 10SM OVC055 11/02 A3023 RMK AO2 T01060017 =
2017-03-30 11:15 METAR KEZF 301515Z AUTO 09004KT 10SM OVC055 10/02 A3023 RMK AO2 T01020017 =
2017-03-30 10:55 METAR KEZF 301455Z AUTO 09006KT 10SM BKN055 10/02 A3024 RMK AO2 T01020015 =
2017-03-30 10:35 METAR KEZF 301435Z AUTO 11008KT 10SM OVC065 10/01 A3024 RMK AO2 T01000011 =
2017-03-30 10:15 METAR KEZF 301415Z AUTO 12007KT 10SM OVC065 10/01 A3025 RMK AO2 T00980014 =
2017-03-30 09:55 METAR KEZF 301355Z AUTO 09007KT 10SM OVC065 10/01 A3024 RMK AO2 T00970012 =
2017-03-30 09:35 METAR KEZF 301335Z AUTO 10005KT 10SM OVC065 10/01 A3024 RMK AO2 T00950014 =
2017-03-30 09:15 METAR KEZF 301315Z AUTO 08006KT 10SM OVC065 09/01 A3025 RMK AO2 T00920009 =
2017-03-30 08:55 METAR KEZF 301255Z AUTO 07007KT 10SM OVC065 09/01 A3025 RMK AO2 T00900006 =
2017-03-30 08:35 METAR KEZF 301235Z AUTO 08007KT 10SM BKN065 OVC075 09/01 A3025 RMK AO2 T00880005
                 =
2017-03-30 08:15 METAR KEZF 301215Z AUTO 04005KT 10SM SCT065 OVC075 09/01 A3025 RMK AO2 T00900010
                 =
2017-03-30 07:55 METAR KEZF 301155Z AUTO 06004KT 10SM SCT065 OVC075 09/01 A3024 RMK AO2 T00860008
                 10097 20065 =
2017-03-30 07:35 METAR KEZF 301135Z AUTO 06005KT 10SM SCT065 OVC075 09/01 A3024 RMK AO2 T00860008
                 =
2017-03-30 07:15 METAR KEZF 301115Z AUTO 05005KT 10SM BKN070 OVC075 09/01 A3024 RMK AO2 T00870006
                 =
2017-03-30 06:55 METAR KEZF 301055Z AUTO 04006KT 10SM OVC070 09/01 A3023 RMK AO2 T00880008 =
2017-03-30 06:35 METAR KEZF 301035Z AUTO 05007KT 010V080 10SM OVC070 09/01 A3022 RMK AO2
                 T00900013 =
2017-03-30 06:15 METAR KEZF 301015Z AUTO 05006KT 10SM OVC070 09/02 A3022 RMK AO2 T00900017 =
2017-03-30 05:55 METAR KEZF 300955Z AUTO 05003KT 10SM OVC070 09/03 A3021 RMK AO2 T00900028 =
2017-03-30 05:35 METAR KEZF 300935Z AUTO 03003KT 10SM OVC070 09/03 A3021 RMK AO2 T00900031 =
2017-03-30 05:15 METAR KEZF 300915Z AUTO 03003KT 10SM OVC070 08/04 A3020 RMK AO2 T00820042 =
2017-03-30 04:55 METAR KEZF 300855Z AUTO 02003KT 10SM OVC070 07/04 A3020 RMK AO2 T00720042 =
2017-03-30 04:35 METAR KEZF 300835Z AUTO 00000KT 10SM BKN070 07/04 A3020 RMK AO2 T00670037 =
2017-03-30 04:15 METAR KEZF 300815Z AUTO 02003KT 10SM CLR 07/04 A3019 RMK AO2 T00690035 =
2017-03-30 03:55 METAR KEZF 300755Z AUTO 00000KT 10SM CLR 07/03 A3019 RMK AO2 T00660032 =
2017-03-30 03:35 METAR KEZF 300735Z AUTO 00000KT 10SM SCT070 07/03 A3019 RMK AO2 T00680034 =
2017-03-30 03:15 METAR KEZF 300715Z AUTO 00000KT 10SM CLR 08/03 A3018 RMK AO2 T00750030 =
2017-03-30 02:55 METAR KEZF 300655Z AUTO 04004KT 10SM CLR 10/02 A3018 RMK AO2 T00950023 =
2017-03-30 02:35 METAR KEZF 300635Z AUTO 03004KT 10SM CLR 10/03 A3019 RMK AO2 T00950026 =
2017-03-30 02:15 METAR KEZF 300615Z AUTO 04005KT 10SM CLR 10/03 A3019 RMK AO2 T00950031 =
2017-03-30 01:55 METAR KEZF 300555Z AUTO 05006KT 10SM CLR 10/03 A3018 RMK AO2 T00950033 10165
                 20079 401990079 =
2017-03-30 01:35 METAR KEZF 300535Z AUTO 05003KT 10SM CLR 09/05 A3018 RMK AO2 T00850045 =
2017-03-30 01:15 METAR KEZF 300515Z AUTO 00000KT 10SM CLR 09/04 A3019 RMK AO2 T00850044 =
2017-03-30 00:55 METAR KEZF 300455Z AUTO 00000KT 10SM CLR 08/04 A3019 RMK AO2 T00790044 =
2017-03-30 00:35 METAR KEZF 300435Z AUTO 00000KT 10SM CLR 09/05 A3018 RMK AO2 T00900050 =
2017-03-30 00:15 METAR KEZF 300415Z AUTO 00000KT 10SM CLR 10/05 A3018 RMK AO2 T00980046 =
2017-03-29 23:55 METAR KEZF 300355Z AUTO 00000KT 10SM CLR 10/05 A3017 RMK AO2 T00990047 =
2017-03-29 23:35 METAR KEZF 300335Z AUTO 11003KT 10SM CLR 11/05 A3017 RMK AO2 T01120048 =
2017-03-29 23:15 METAR KEZF 300315Z AUTO 07004KT 10SM CLR 11/05 A3018 RMK AO2 T01100050 =
2017-03-29 22:55 METAR KEZF 300255Z AUTO 00000KT 10SM CLR 12/05 A3018 RMK AO2 T01150049 =
2017-03-29 22:35 METAR KEZF 300235Z AUTO 10003KT 10SM CLR 13/05 A3018 RMK AO2 T01270048 =
2017-03-29 22:15 METAR KEZF 300215Z AUTO 11004KT 10SM CLR 13/05 A3018 RMK AO2 T01310048 =
2017-03-29 21:55 METAR KEZF 300155Z AUTO 12005KT 10SM CLR 14/05 A3017 RMK AO2 T01350047 =
2017-03-29 21:35 METAR KEZF 300135Z AUTO 11005KT 10SM CLR 13/04 A3016 RMK AO2 T01340043 =
2017-03-29 21:15 METAR KEZF 300115Z AUTO 00000KT 10SM CLR 13/04 A3014 RMK AO2 T01340036 =
2017-03-29 20:55 METAR KEZF 300055Z AUTO 04004KT 10SM CLR 16/02 A3013 RMK AO2 T01550023 =
2017-03-29 20:35 METAR KEZF 300035Z AUTO 04005KT 10SM CLR 16/03 A3012 RMK AO2 T01580025 =
2017-03-29 20:15 METAR KEZF 300015Z AUTO 04005KT 10SM CLR 16/03 A3012 RMK AO2 T01610026 =
2017-03-29 19:55 METAR KEZF 292355Z AUTO 02004KT 10SM CLR 17/03 A3012 RMK AO2 T01650026 10199
                 20165 =
2017-03-29 19:35 METAR KEZF 292335Z AUTO 01006KT 10SM CLR 17/02 A3011 RMK AO2 T01730023 =
2017-03-29 19:15 METAR KEZF 292315Z AUTO 36006KT 10SM CLR 18/02 A3011 RMK AO2 T01790024 =
2017-03-29 18:55 METAR KEZF 292255Z AUTO 03005KT 10SM CLR 19/03 A3010 RMK AO2 T01850029 =
2017-03-29 18:35 METAR KEZF 292235Z AUTO 01006KT 10SM CLR 19/03 A3009 RMK AO2 T01880027 =
2017-03-29 18:15 METAR KEZF 292215Z AUTO 01009KT 10SM CLR 19/03 A3008 RMK AO2 T01910033 =
2017-03-29 17:55 METAR KEZF 292155Z AUTO 34008KT 10SM CLR 19/03 A3008 RMK AO2 T01920030 =
2017-03-29 17:35 METAR KEZF 292135Z AUTO 35008KT 320V030 10SM CLR 20/04 A3008 RMK AO2 T01950039 =
2017-03-29 17:15 METAR KEZF 292115Z AUTO 35008KT 10SM CLR 20/04 A3007 RMK AO2 T01980036 =
2017-03-29 16:55 METAR KEZF 292055Z AUTO 02006KT 10SM CLR 20/04 A3007 RMK AO2 T01960036 =
2017-03-29 16:35 METAR KEZF 292035Z AUTO 34005KT 10SM CLR 20/04 A3007 RMK AO2 T01950035 =
2017-03-29 16:15 METAR KEZF 292015Z AUTO 36005KT 10SM CLR 20/05 A3007 RMK AO2 T01950046 =
2017-03-29 15:55 METAR KEZF 291955Z AUTO 31006G14KT 10SM CLR 20/05 A3006 RMK AO2 T01980054 =
2017-03-29 15:35 METAR KEZF 291935Z AUTO 34008G14KT 10SM CLR 19/05 A3007 RMK AO2 T01940053 =
2017-03-29 15:15 METAR KEZF 291915Z AUTO 02007KT 10SM CLR 19/06 A3007 RMK AO2 T01930057 =
2017-03-29 14:55 METAR KEZF 291855Z AUTO 35006KT 10SM CLR 19/06 A3008 RMK AO2 T01880058 =
2017-03-29 14:35 METAR KEZF 291835Z AUTO 35009G16KT 10SM CLR 19/07 A3008 RMK AO2 T01910067 =

Support USWX by starting your Amazon purchase here.